sensor_id;sensor_type;location;lat;lon;timestamp;temperature;humidity
44063;DHT22;29727;47.606;19.130;2022-09-09T06:13:02;20.30;84.30
44063;DHT22;29727;47.606;19.130;2022-09-09T06:15:27;20.40;85.10
44063;DHT22;29727;47.606;19.130;2022-09-09T06:17:55;20.40;85.20
44063;DHT22;29727;47.606;19.130;2022-09-09T06:20:21;20.50;85.10
44063;DHT22;29727;47.606;19.130;2022-09-09T06:22:48;20.50;84.80
44063;DHT22;29727;47.606;19.130;2022-09-09T06:25:14;20.60;84.60
44063;DHT22;29727;47.606;19.130;2022-09-09T06:27:40;20.60;84.60
44063;DHT22;29727;47.606;19.130;2022-09-09T06:30:07;20.70;84.60
44063;DHT22;29727;47.606;19.130;2022-09-09T06:32:33;20.70;85.00
44063;DHT22;29727;47.606;19.130;2022-09-09T06:35:00;20.80;85.00
44063;DHT22;29727;47.606;19.130;2022-09-09T06:37:26;21.00;79.70
44063;DHT22;29727;47.606;19.130;2022-09-09T06:39:52;20.90;80.10
44063;DHT22;29727;47.606;19.130;2022-09-09T06:42:20;21.00;80.00
44063;DHT22;29727;47.606;19.130;2022-09-09T06:44:45;21.00;80.70
44063;DHT22;29727;47.606;19.130;2022-09-09T06:47:11;21.00;79.80
44063;DHT22;29727;47.606;19.130;2022-09-09T06:49:38;21.10;79.80
44063;DHT22;29727;47.606;19.130;2022-09-09T06:52:03;21.10;79.90
44063;DHT22;29727;47.606;19.130;2022-09-09T06:54:29;21.10;80.80
44063;DHT22;29727;47.606;19.130;2022-09-09T06:56:55;21.10;80.10
44063;DHT22;29727;47.606;19.130;2022-09-09T06:59:20;21.20;80.10
44063;DHT22;29727;47.606;19.130;2022-09-09T07:01:46;21.20;80.00
44063;DHT22;29727;47.606;19.130;2022-09-09T07:04:12;21.20;78.00
44063;DHT22;29727;47.606;19.130;2022-09-09T07:06:44;21.30;77.50
44063;DHT22;29727;47.606;19.130;2022-09-09T07:09:13;21.30;78.00
44063;DHT22;29727;47.606;19.130;2022-09-09T07:11:46;21.30;77.20
44063;DHT22;29727;47.606;19.130;2022-09-09T07:14:13;21.40;76.40
44063;DHT22;29727;47.606;19.130;2022-09-09T07:16:40;21.40;76.70
44063;DHT22;29727;47.606;19.130;2022-09-09T07:19:07;21.40;77.30
44063;DHT22;29727;47.606;19.130;2022-09-09T07:21:33;21.40;77.20
44063;DHT22;29727;47.606;19.130;2022-09-09T07:23:59;21.40;77.80
44063;DHT22;29727;47.606;19.130;2022-09-09T07:26:27;21.40;78.70
44063;DHT22;29727;47.606;19.130;2022-09-09T07:28:53;21.40;78.30
44063;DHT22;29727;47.606;19.130;2022-09-09T07:31:24;21.40;77.80
44063;DHT22;29727;47.606;19.130;2022-09-09T07:33:50;21.50;76.00
44063;DHT22;29727;47.606;19.130;2022-09-09T07:36:25;21.50;75.90
44063;DHT22;29727;47.606;19.130;2022-09-09T07:39:00;21.60;75.80
44063;DHT22;29727;47.606;19.130;2022-09-09T07:43:57;21.60;74.30
44063;DHT22;29727;47.606;19.130;2022-09-09T07:46:25;21.70;74.20
44063;DHT22;29727;47.606;19.130;2022-09-09T07:48:53;21.70;74.00
44063;DHT22;29727;47.606;19.130;2022-09-09T07:51:29;21.80;73.20
44063;DHT22;29727;47.606;19.130;2022-09-09T07:54:00;21.70;73.80
44063;DHT22;29727;47.606;19.130;2022-09-09T07:56:28;21.80;75.20
44063;DHT22;29727;47.606;19.130;2022-09-09T07:58:55;21.80;74.50
44063;DHT22;29727;47.606;19.130;2022-09-09T08:01:27;21.90;74.20
44063;DHT22;29727;47.606;19.130;2022-09-09T08:03:54;21.90;73.90
44063;DHT22;29727;47.606;19.130;2022-09-09T08:06:21;22.00;73.50
44063;DHT22;29727;47.606;19.130;2022-09-09T08:08:50;22.10;74.70
44063;DHT22;29727;47.606;19.130;2022-09-09T08:11:17;22.10;74.30
44063;DHT22;29727;47.606;19.130;2022-09-09T08:13:43;22.30;73.50
44063;DHT22;29727;47.606;19.130;2022-09-09T08:16:20;22.30;73.00
44063;DHT22;29727;47.606;19.130;2022-09-09T08:18:50;22.40;72.70
44063;DHT22;29727;47.606;19.130;2022-09-09T08:21:22;22.50;71.40
44063;DHT22;29727;47.606;19.130;2022-09-09T08:23:51;22.50;70.90
44063;DHT22;29727;47.606;19.130;2022-09-09T08:26:26;22.60;69.50
44063;DHT22;29727;47.606;19.130;2022-09-09T08:28:55;22.70;70.90
44063;DHT22;29727;47.606;19.130;2022-09-09T08:31:45;22.70;72.40
44063;DHT22;29727;47.606;19.130;2022-09-09T08:34:12;22.80;70.10
44063;DHT22;29727;47.606;19.130;2022-09-09T08:36:40;22.90;68.90
44063;DHT22;29727;47.606;19.130;2022-09-09T08:39:09;23.00;68.80
44063;DHT22;29727;47.606;19.130;2022-09-09T08:52:38;23.40;65.60
44063;DHT22;29727;47.606;19.130;2022-09-09T08:57:45;23.60;66.90
44063;DHT22;29727;47.606;19.130;2022-09-09T09:00:12;23.70;65.50
44063;DHT22;29727;47.606;19.130;2022-09-09T09:02:49;23.80;64.60
44063;DHT22;29727;47.606;19.130;2022-09-09T09:10:47;24.00;65.60
44063;DHT22;29727;47.606;19.130;2022-09-09T09:13:19;24.10;65.20
44063;DHT22;29727;47.606;19.130;2022-09-09T09:15:52;24.20;62.50
44063;DHT22;29727;47.606;19.130;2022-09-09T09:18:19;24.30;63.20
44063;DHT22;29727;47.606;19.130;2022-09-09T09:23:24;24.40;62.20
44063;DHT22;29727;47.606;19.130;2022-09-09T09:25:54;24.50;61.90
44063;DHT22;29727;47.606;19.130;2022-09-09T09:28:25;24.60;62.90
44063;DHT22;29727;47.606;19.130;2022-09-09T09:30:56;24.70;62.50
44063;DHT22;29727;47.606;19.130;2022-09-09T09:35:58;24.70;60.90
44063;DHT22;29727;47.606;19.130;2022-09-09T09:38:26;24.80;60.80
44063;DHT22;29727;47.606;19.130;2022-09-09T09:40:54;24.80;61.00
44063;DHT22;29727;47.606;19.130;2022-09-09T09:43:34;24.80;63.60
44063;DHT22;29727;47.606;19.130;2022-09-09T09:46:00;25.00;62.80
44063;DHT22;29727;47.606;19.130;2022-09-09T09:48:28;25.10;61.00
44063;DHT22;29727;47.606;19.130;2022-09-09T09:56:13;25.20;59.60
44063;DHT22;29727;47.606;19.130;2022-09-09T10:03:51;25.40;57.80
44063;DHT22;29727;47.606;19.130;2022-09-09T10:06:17;25.30;59.70
44063;DHT22;29727;47.606;19.130;2022-09-09T10:08:46;25.30;58.70
44063;DHT22;29727;47.606;19.130;2022-09-09T10:14:20;25.40;58.30
44063;DHT22;29727;47.606;19.130;2022-09-09T10:19:31;25.50;61.30
44063;DHT22;29727;47.606;19.130;2022-09-09T10:27:38;26.00;56.70
44063;DHT22;29727;47.606;19.130;2022-09-09T10:30:30;26.10;57.20
44063;DHT22;29727;47.606;19.130;2022-09-09T10:33:16;26.20;57.10
44063;DHT22;29727;47.606;19.130;2022-09-09T10:46:29;27.00;56.50
44063;DHT22;29727;47.606;19.130;2022-09-09T10:57:46;27.50;52.50
44063;DHT22;29727;47.606;19.130;2022-09-09T10:59:50;27.50;52.60
44063;DHT22;29727;47.606;19.130;2022-09-09T11:02:29;27.50;51.10
44063;DHT22;29727;47.606;19.130;2022-09-09T11:05:24;27.50;52.60
44063;DHT22;29727;47.606;19.130;2022-09-09T11:08:04;27.50;51.30
44063;DHT22;29727;47.606;19.130;2022-09-09T11:13:26;27.60;56.40
44063;DHT22;29727;47.606;19.130;2022-09-09T11:16:56;27.70;52.30
44063;DHT22;29727;47.606;19.130;2022-09-09T11:19:03;27.90;51.80
44063;DHT22;29727;47.606;19.130;2022-09-09T11:21:35;28.00;50.60
44063;DHT22;29727;47.606;19.130;2022-09-09T11:24:33;28.10;52.20
44063;DHT22;29727;47.606;19.130;2022-09-09T11:27:02;28.20;50.40
44063;DHT22;29727;47.606;19.130;2022-09-09T11:35:17;28.10;52.40
44063;DHT22;29727;47.606;19.130;2022-09-09T11:40:27;28.30;56.20
44063;DHT22;29727;47.606;19.130;2022-09-09T11:43:27;28.50;51.20
44063;DHT22;29727;47.606;19.130;2022-09-09T12:04:40;29.30;47.60
44063;DHT22;29727;47.606;19.130;2022-09-09T12:14:54;29.60;47.90
44063;DHT22;29727;47.606;19.130;2022-09-09T12:17:23;29.60;49.00
44063;DHT22;29727;47.606;19.130;2022-09-09T12:20:04;29.70;48.10
44063;DHT22;29727;47.606;19.130;2022-09-09T12:22:44;29.80;46.70
44063;DHT22;29727;47.606;19.130;2022-09-09T12:25:32;29.90;48.90
44063;DHT22;29727;47.606;19.130;2022-09-09T12:31:06;30.00;48.60
44063;DHT22;29727;47.606;19.130;2022-09-09T12:33:38;30.60;47.80
44063;DHT22;29727;47.606;19.130;2022-09-09T12:36:13;30.00;48.90
44063;DHT22;29727;47.606;19.130;2022-09-09T12:38:41;30.00;45.60
44063;DHT22;29727;47.606;19.130;2022-09-09T12:41:19;30.00;47.50
44063;DHT22;29727;47.606;19.130;2022-09-09T12:43:45;30.00;48.00
44063;DHT22;29727;47.606;19.130;2022-09-09T12:46:50;30.00;48.00
44063;DHT22;29727;47.606;19.130;2022-09-09T12:52:22;30.10;46.90
44063;DHT22;29727;47.606;19.130;2022-09-09T12:54:50;30.20;47.10
44063;DHT22;29727;47.606;19.130;2022-09-09T12:57:19;30.20;45.90
44063;DHT22;29727;47.606;19.130;2022-09-09T12:59:47;30.30;46.70
44063;DHT22;29727;47.606;19.130;2022-09-09T13:02:20;30.40;48.80
44063;DHT22;29727;47.606;19.130;2022-09-09T13:04:46;30.40;45.10
44063;DHT22;29727;47.606;19.130;2022-09-09T13:07:13;30.30;48.00
44063;DHT22;29727;47.606;19.130;2022-09-09T13:09:41;30.40;45.40
44063;DHT22;29727;47.606;19.130;2022-09-09T13:12:21;30.40;45.90
44063;DHT22;29727;47.606;19.130;2022-09-09T13:14:50;30.40;45.40
44063;DHT22;29727;47.606;19.130;2022-09-09T13:17:23;30.30;45.30
44063;DHT22;29727;47.606;19.130;2022-09-09T13:19:50;30.30;44.60
44063;DHT22;29727;47.606;19.130;2022-09-09T13:22:37;30.30;45.50
44063;DHT22;29727;47.606;19.130;2022-09-09T13:27:33;30.30;44.20
44063;DHT22;29727;47.606;19.130;2022-09-09T13:30:00;30.20;44.60
44063;DHT22;29727;47.606;19.130;2022-09-09T13:32:26;30.20;45.20
44063;DHT22;29727;47.606;19.130;2022-09-09T13:34:54;30.10;45.80
44063;DHT22;29727;47.606;19.130;2022-09-09T13:37:30;30.00;45.10
44063;DHT22;29727;47.606;19.130;2022-09-09T13:39:57;30.00;44.70
44063;DHT22;29727;47.606;19.130;2022-09-09T13:42:28;29.90;46.90
44063;DHT22;29727;47.606;19.130;2022-09-09T13:44:55;29.90;45.70
44063;DHT22;29727;47.606;19.130;2022-09-09T13:47:36;30.00;47.70
44063;DHT22;29727;47.606;19.130;2022-09-09T13:52:45;30.00;45.30
44063;DHT22;29727;47.606;19.130;2022-09-09T13:55:12;30.00;46.70
44063;DHT22;29727;47.606;19.130;2022-09-09T13:57:38;29.90;44.90
44063;DHT22;29727;47.606;19.130;2022-09-09T14:00:05;29.90;47.00
44063;DHT22;29727;47.606;19.130;2022-09-09T14:02:32;29.90;44.60
44063;DHT22;29727;47.606;19.130;2022-09-09T14:04:58;29.80;43.10
44063;DHT22;29727;47.606;19.130;2022-09-09T14:07:24;29.60;44.80
44063;DHT22;29727;47.606;19.130;2022-09-09T14:09:50;29.40;44.50
44063;DHT22;29727;47.606;19.130;2022-09-09T14:12:17;29.20;44.60
44063;DHT22;29727;47.606;19.130;2022-09-09T14:14:43;29.10;45.20
44063;DHT22;29727;47.606;19.130;2022-09-09T14:17:09;28.90;46.30
44063;DHT22;29727;47.606;19.130;2022-09-09T14:19:35;28.90;47.10
44063;DHT22;29727;47.606;19.130;2022-09-09T14:22:03;28.90;45.80
44063;DHT22;29727;47.606;19.130;2022-09-09T14:24:29;28.90;45.90
44063;DHT22;29727;47.606;19.130;2022-09-09T14:26:55;28.90;46.40
44063;DHT22;29727;47.606;19.130;2022-09-09T14:29:21;28.90;45.20
44063;DHT22;29727;47.606;19.130;2022-09-09T14:31:46;28.90;45.90
44063;DHT22;29727;47.606;19.130;2022-09-09T14:34:12;28.80;46.30
44063;DHT22;29727;47.606;19.130;2022-09-09T14:36:40;28.80;45.90
44063;DHT22;29727;47.606;19.130;2022-09-09T14:39:07;28.70;46.60
44063;DHT22;29727;47.606;19.130;2022-09-09T14:41:33;28.70;46.30
44063;DHT22;29727;47.606;19.130;2022-09-09T14:43:59;28.60;48.60
44063;DHT22;29727;47.606;19.130;2022-09-09T14:46:25;28.60;47.00
44063;DHT22;29727;47.606;19.130;2022-09-09T14:48:52;28.60;46.40
44063;DHT22;29727;47.606;19.130;2022-09-09T14:51:23;28.60;47.30
44063;DHT22;29727;47.606;19.130;2022-09-09T14:53:54;28.60;47.80
44063;DHT22;29727;47.606;19.130;2022-09-09T14:56:21;28.70;45.10
44063;DHT22;29727;47.606;19.130;2022-09-09T14:58:48;28.70;44.80
44063;DHT22;29727;47.606;19.130;2022-09-09T15:01:16;28.70;46.70
44063;DHT22;29727;47.606;19.130;2022-09-09T15:03:48;28.70;47.80
44063;DHT22;29727;47.606;19.130;2022-09-09T15:06:14;28.70;47.80
44063;DHT22;29727;47.606;19.130;2022-09-09T15:08:42;28.70;49.80
44063;DHT22;29727;47.606;19.130;2022-09-09T15:11:09;28.70;49.20
44063;DHT22;29727;47.606;19.130;2022-09-09T15:13:36;28.70;51.50
44063;DHT22;29727;47.606;19.130;2022-09-09T15:16:12;28.00;48.10
44063;DHT22;29727;47.606;19.130;2022-09-09T15:18:38;28.70;49.10
44063;DHT22;29727;47.606;19.130;2022-09-09T15:21:30;28.70;52.00
44063;DHT22;29727;47.606;19.130;2022-09-09T15:23:55;28.70;51.50
44063;DHT22;29727;47.606;19.130;2022-09-09T15:26:21;28.70;49.70
44063;DHT22;29727;47.606;19.130;2022-09-09T15:28:47;28.70;48.50
44063;DHT22;29727;47.606;19.130;2022-09-09T15:31:20;28.70;50.60
44063;DHT22;29727;47.606;19.130;2022-09-09T15:33:49;28.70;53.50
44063;DHT22;29727;47.606;19.130;2022-09-09T15:38:42;28.60;54.50
44063;DHT22;29727;47.606;19.130;2022-09-09T15:41:09;28.60;53.10
44063;DHT22;29727;47.606;19.130;2022-09-09T15:43:35;28.50;53.30
44063;DHT22;29727;47.606;19.130;2022-09-09T15:46:42;28.50;53.50
44063;DHT22;29727;47.606;19.130;2022-09-09T15:49:05;28.50;49.10
44063;DHT22;29727;47.606;19.130;2022-09-09T15:51:32;28.50;47.10
44063;DHT22;29727;47.606;19.130;2022-09-09T15:53:59;28.50;48.50
44063;DHT22;29727;47.606;19.130;2022-09-09T15:56:28;28.40;49.20
44063;DHT22;29727;47.606;19.130;2022-09-09T15:58:57;28.40;47.10
44063;DHT22;29727;47.606;19.130;2022-09-09T16:01:23;28.30;46.40
44063;DHT22;29727;47.606;19.130;2022-09-09T16:03:49;28.30;49.90
44063;DHT22;29727;47.606;19.130;2022-09-09T16:06:18;28.20;47.10
44063;DHT22;29727;47.606;19.130;2022-09-09T16:08:45;28.10;50.30
44063;DHT22;29727;47.606;19.130;2022-09-09T16:11:19;28.10;50.90
44063;DHT22;29727;47.606;19.130;2022-09-09T16:13:47;28.10;52.20
44063;DHT22;29727;47.606;19.130;2022-09-09T16:16:14;28.00;51.40
44063;DHT22;29727;47.606;19.130;2022-09-09T16:18:44;27.90;53.30
44063;DHT22;29727;47.606;19.130;2022-09-09T16:21:19;27.90;54.50
44063;DHT22;29727;47.606;19.130;2022-09-09T16:23:46;27.80;52.60
44063;DHT22;29727;47.606;19.130;2022-09-09T16:26:13;27.80;52.80
44063;DHT22;29727;47.606;19.130;2022-09-09T16:28:40;27.80;52.00
44063;DHT22;29727;47.606;19.130;2022-09-09T16:31:11;27.70;55.20
44063;DHT22;29727;47.606;19.130;2022-09-09T16:33:40;27.70;55.20
44063;DHT22;29727;47.606;19.130;2022-09-09T16:36:07;27.60;56.80
44063;DHT22;29727;47.606;19.130;2022-09-09T16:38:33;27.50;56.00
44063;DHT22;29727;47.606;19.130;2022-09-09T16:41:01;27.50;56.40
44063;DHT22;29727;47.606;19.130;2022-09-09T16:43:27;27.50;56.70
44063;DHT22;29727;47.606;19.130;2022-09-09T16:45:53;27.40;56.70
44063;DHT22;29727;47.606;19.130;2022-09-09T16:48:19;27.30;57.50
44063;DHT22;29727;47.606;19.130;2022-09-09T16:50:45;27.30;56.90
44063;DHT22;29727;47.606;19.130;2022-09-09T16:53:11;27.20;58.60
44063;DHT22;29727;47.606;19.130;2022-09-09T16:55:40;27.20;59.30
44063;DHT22;29727;47.606;19.130;2022-09-09T16:58:07;27.10;59.20
44063;DHT22;29727;47.606;19.130;2022-09-09T17:00:34;27.00;60.20
44063;DHT22;29727;47.606;19.130;2022-09-09T17:03:00;27.00;60.30
44063;DHT22;29727;47.606;19.130;2022-09-09T17:05:26;26.90;60.00
44063;DHT22;29727;47.606;19.130;2022-09-09T17:07:51;26.80;60.60
44063;DHT22;29727;47.606;19.130;2022-09-09T17:10:17;26.80;60.50
44063;DHT22;29727;47.606;19.130;2022-09-09T17:12:43;26.70;60.90
44063;DHT22;29727;47.606;19.130;2022-09-09T17:15:09;26.70;61.40
44063;DHT22;29727;47.606;19.130;2022-09-09T17:17:35;26.60;62.00
44063;DHT22;29727;47.606;19.130;2022-09-09T17:20:04;26.60;63.00
44063;DHT22;29727;47.606;19.130;2022-09-09T17:22:32;26.50;63.30
44063;DHT22;29727;47.606;19.130;2022-09-09T17:24:58;26.40;62.80
44063;DHT22;29727;47.606;19.130;2022-09-09T17:27:23;26.40;63.80
44063;DHT22;29727;47.606;19.130;2022-09-09T17:29:49;26.40;63.50
44063;DHT22;29727;47.606;19.130;2022-09-09T17:32:15;26.30;63.60
44063;DHT22;29727;47.606;19.130;2022-09-09T17:34:40;26.20;63.80
44063;DHT22;29727;47.606;19.130;2022-09-09T17:37:06;26.20;64.00
44063;DHT22;29727;47.606;19.130;2022-09-09T17:39:32;26.10;64.20
44063;DHT22;29727;47.606;19.130;2022-09-09T17:41:58;26.00;64.60
44063;DHT22;29727;47.606;19.130;2022-09-09T17:44:23;25.90;64.80
44063;DHT22;29727;47.606;19.130;2022-09-09T17:46:49;25.90;65.30
44063;DHT22;29727;47.606;19.130;2022-09-09T17:49:16;25.70;65.10
44063;DHT22;29727;47.606;19.130;2022-09-09T17:51:44;25.70;65.70
44063;DHT22;29727;47.606;19.130;2022-09-09T17:54:13;25.70;65.60
44063;DHT22;29727;47.606;19.130;2022-09-09T17:56:39;25.60;65.40
44063;DHT22;29727;47.606;19.130;2022-09-09T17:59:07;25.50;65.70
44063;DHT22;29727;47.606;19.130;2022-09-09T18:01:37;25.40;65.90
44063;DHT22;29727;47.606;19.130;2022-09-09T18:04:05;25.30;66.10
44063;DHT22;29727;47.606;19.130;2022-09-09T18:06:34;25.30;66.50
44063;DHT22;29727;47.606;19.130;2022-09-09T18:09:04;25.20;66.50
44063;DHT22;29727;47.606;19.130;2022-09-09T21:08:16;23.10;76.30
44063;DHT22;29727;47.606;19.130;2022-09-09T21:10:45;23.10;77.20
44063;DHT22;29727;47.606;19.130;2022-09-09T21:13:11;23.10;77.80
44063;DHT22;29727;47.606;19.130;2022-09-09T21:15:37;23.10;78.20
44063;DHT22;29727;47.606;19.130;2022-09-09T21:18:02;23.10;78.30
44063;DHT22;29727;47.606;19.130;2022-09-09T21:20:28;23.10;78.30
44063;DHT22;29727;47.606;19.130;2022-09-09T21:22:54;23.10;78.20
44063;DHT22;29727;47.606;19.130;2022-09-09T21:25:19;23.00;77.40
44063;DHT22;29727;47.606;19.130;2022-09-09T21:27:45;23.00;77.60
44063;DHT22;29727;47.606;19.130;2022-09-09T21:30:11;22.90;77.50
44063;DHT22;29727;47.606;19.130;2022-09-09T21:32:37;22.90;78.10
44063;DHT22;29727;47.606;19.130;2022-09-09T21:35:04;22.80;78.10
44063;DHT22;29727;47.606;19.130;2022-09-09T21:37:31;22.80;78.50
44063;DHT22;29727;47.606;19.130;2022-09-09T21:39:56;22.70;78.90
44063;DHT22;29727;47.606;19.130;2022-09-09T21:42:22;22.70;79.30
44063;DHT22;29727;47.606;19.130;2022-09-09T21:44:48;22.70;79.30
44063;DHT22;29727;47.606;19.130;2022-09-09T21:47:14;22.60;79.70
44063;DHT22;29727;47.606;19.130;2022-09-09T21:49:40;22.50;79.30
44063;DHT22;29727;47.606;19.130;2022-09-09T21:52:06;22.60;80.20
44063;DHT22;29727;47.606;19.130;2022-09-09T21:54:31;22.60;79.80
44063;DHT22;29727;47.606;19.130;2022-09-09T21:56:57;22.60;79.60
44063;DHT22;29727;47.606;19.130;2022-09-09T21:59:25;22.50;79.50
44063;DHT22;29727;47.606;19.130;2022-09-09T22:01:51;22.60;79.70
44063;DHT22;29727;47.606;19.130;2022-09-09T22:04:17;22.70;79.70
44063;DHT22;29727;47.606;19.130;2022-09-09T22:06:43;22.70;80.60
44063;DHT22;29727;47.606;19.130;2022-09-09T22:09:08;22.70;80.20
44063;DHT22;29727;47.606;19.130;2022-09-09T22:11:34;22.70;80.30
44063;DHT22;29727;47.606;19.130;2022-09-09T22:14:00;22.60;80.50
44063;DHT22;29727;47.606;19.130;2022-09-09T22:16:26;22.70;80.70
44063;DHT22;29727;47.606;19.130;2022-09-09T22:18:54;22.60;81.20
44063;DHT22;29727;47.606;19.130;2022-09-09T22:21:21;22.60;81.20
44063;DHT22;29727;47.606;19.130;2022-09-09T22:23:58;22.60;81.50
44063;DHT22;29727;47.606;19.130;2022-09-09T22:26:26;22.60;81.90
44063;DHT22;29727;47.606;19.130;2022-09-09T22:28:52;22.50;81.90
44063;DHT22;29727;47.606;19.130;2022-09-09T22:31:19;22.50;82.10
44063;DHT22;29727;47.606;19.130;2022-09-09T22:33:46;22.40;82.10
44063;DHT22;29727;47.606;19.130;2022-09-09T22:36:11;22.50;82.50
44063;DHT22;29727;47.606;19.130;2022-09-09T22:38:37;22.40;82.60
44063;DHT22;29727;47.606;19.130;2022-09-09T22:41:04;22.40;83.00
44063;DHT22;29727;47.606;19.130;2022-09-09T22:43:30;22.40;83.10
44063;DHT22;29727;47.606;19.130;2022-09-09T22:46:00;22.40;83.60
44063;DHT22;29727;47.606;19.130;2022-09-09T22:48:30;22.40;83.50
44063;DHT22;29727;47.606;19.130;2022-09-09T22:51:07;22.40;82.80
44063;DHT22;29727;47.606;19.130;2022-09-09T22:53:33;22.40;83.20
44063;DHT22;29727;47.606;19.130;2022-09-09T22:56:05;22.50;83.10
44063;DHT22;29727;47.606;19.130;2022-09-09T22:58:34;22.50;83.10
44063;DHT22;29727;47.606;19.130;2022-09-09T23:01:10;22.50;82.80
44063;DHT22;29727;47.606;19.130;2022-09-09T23:03:38;22.50;82.70
44063;DHT22;29727;47.606;19.130;2022-09-09T23:06:05;22.50;82.80
44063;DHT22;29727;47.606;19.130;2022-09-09T23:08:33;22.50;82.90
44063;DHT22;29727;47.606;19.130;2022-09-09T23:11:00;22.50;82.90
44063;DHT22;29727;47.606;19.130;2022-09-09T23:13:28;22.50;82.70
44063;DHT22;29727;47.606;19.130;2022-09-09T23:15:57;22.50;82.70
44063;DHT22;29727;47.606;19.130;2022-09-09T23:18:22;22.60;82.80
44063;DHT22;29727;47.606;19.130;2022-09-09T23:20:57;22.50;82.80
44063;DHT22;29727;47.606;19.130;2022-09-09T23:23:26;22.50;83.00
44063;DHT22;29727;47.606;19.130;2022-09-09T23:25:52;22.50;83.00
44063;DHT22;29727;47.606;19.130;2022-09-09T23:28:18;22.50;83.00
44063;DHT22;29727;47.606;19.130;2022-09-09T23:30:43;22.50;83.00
44063;DHT22;29727;47.606;19.130;2022-09-09T23:33:09;22.50;82.80
44063;DHT22;29727;47.606;19.130;2022-09-09T23:35:34;22.60;83.00
44063;DHT22;29727;47.606;19.130;2022-09-09T23:38:00;22.60;83.00
44063;DHT22;29727;47.606;19.130;2022-09-09T23:40:26;22.60;83.00
44063;DHT22;29727;47.606;19.130;2022-09-09T23:42:52;22.50;82.80
44063;DHT22;29727;47.606;19.130;2022-09-09T23:45:19;22.60;82.90
44063;DHT22;29727;47.606;19.130;2022-09-09T23:47:45;22.60;83.00
44063;DHT22;29727;47.606;19.130;2022-09-09T23:50:11;22.60;82.60
44063;DHT22;29727;47.606;19.130;2022-09-09T23:52:37;22.60;83.00
44063;DHT22;29727;47.606;19.130;2022-09-09T23:55:04;22.60;83.00
44063;DHT22;29727;47.606;19.130;2022-09-09T23:57:32;22.60;83.00
44063;DHT22;29727;47.606;19.130;2022-09-09T23:59:57;22.60;83.20
